Time;durP1;ratioP1;P1;durP2;ratioP2;P2;SDS_P1;SDS_P2;PMS_P1;PMS_P2;Temp;Humidity;BMP_temperature;BMP_pressure;BME280_temperature;BME280_humidity;BME280_pressure;Samples;Min_cycle;Max_cycle;Signal;HPM_P1;HPM_P2
2022/09/18 00:01:31;;;;;;;8.75;1.92;;;8.40;99.90;;;;;;4990841;28;20039;-70
2022/09/18 00:04:01;;;;;;;6.72;1.90;;;8.30;99.90;;;;;;4991207;28;20054;-70
2022/09/18 00:06:33;;;;;;;6.10;2.20;;;8.40;99.90;;;;;;4989576;28;20069;-70
2022/09/18 00:09:04;;;;;;;8.15;1.77;;;8.30;99.90;;;;;;4990014;28;20062;-69
2022/09/18 00:11:38;;;;;;;8.85;2.28;;;8.30;99.90;;;;;;4968084;28;20514;-69
2022/09/18 00:14:07;;;;;;;7.05;1.83;;;8.30;99.90;;;;;;4990686;28;20042;-69
2022/09/18 00:16:34;;;;;;;6.35;1.70;;;8.30;99.90;;;;;;4991007;28;20050;-69
2022/09/18 00:19:03;;;;;;;4.47;1.60;;;8.30;99.90;;;;;;4991243;28;20563;-70
2022/09/18 00:21:30;;;;;;;9.05;1.90;;;8.30;99.90;;;;;;4990638;28;20412;-70
2022/09/18 00:24:00;;;;;;;7.78;2.38;;;8.30;99.90;;;;;;4990807;28;20133;-71
2022/09/18 00:26:28;;;;;;;9.43;1.90;;;8.40;99.90;;;;;;4990346;28;20049;-70
2022/09/18 00:28:57;;;;;;;7.30;2.33;;;8.40;99.90;;;;;;4990911;28;20501;-70
2022/09/18 00:31:30;;;;;;;9.93;2.58;;;8.40;99.90;;;;;;5009705;28;20408;-70
2022/09/18 00:34:01;;;;;;;6.38;1.83;;;8.30;99.90;;;;;;4993515;28;20129;-70
2022/09/18 00:36:29;;;;;;;7.60;1.90;;;8.40;99.90;;;;;;4994288;28;20042;-71
2022/09/18 00:38:58;;;;;;;4.10;1.67;;;8.40;99.90;;;;;;4993115;28;20057;-70
2022/09/18 00:41:29;;;;;;;6.35;2.00;;;8.40;99.90;;;;;;4993248;28;20058;-70
2022/09/18 00:44:27;;;;;;;8.43;1.73;;;8.40;99.90;;;;;;4993152;28;20046;-70
2022/09/18 00:47:01;;;;;;;10.52;2.35;;;8.50;99.90;;;;;;4993733;28;20046;-70
2022/09/18 00:49:29;;;;;;;9.27;2.03;;;8.50;99.90;;;;;;4994380;28;20050;-70
2022/09/18 00:51:59;;;;;;;6.90;2.53;;;8.60;99.90;;;;;;4992513;28;20057;-70
2022/09/18 00:54:53;;;;;;;8.88;1.90;;;8.60;99.90;;;;;;4992743;28;20058;-70
2022/09/18 00:57:29;;;;;;;6.63;1.85;;;8.70;99.90;;;;;;4986309;28;20043;-71
2022/09/18 00:59:57;;;;;;;6.15;1.73;;;8.70;99.90;;;;;;4993776;28;20054;-70
2022/09/18 01:02:24;;;;;;;6.43;2.15;;;8.60;99.90;;;;;;4977061;28;20539;-70
2022/09/18 01:04:53;;;;;;;4.57;1.90;;;8.70;99.90;;;;;;4993342;28;20050;-69
2022/09/18 01:07:59;;;;;;;6.85;2.30;;;8.80;99.90;;;;;;4986705;28;20038;-71
2022/09/18 01:10:45;;;;;;;12.27;2.70;;;8.80;99.90;;;;;;4990866;28;20108;-70
2022/09/18 01:13:25;;;;;;;6.22;2.35;;;8.80;99.90;;;;;;4992359;28;20566;-69
2022/09/18 01:16:15;;;;;;;7.90;2.38;;;8.80;99.90;;;;;;4993694;28;20182;-70
2022/09/18 01:19:08;;;;;;;7.30;2.30;;;8.90;99.90;;;;;;4916991;29;20572;-70
2022/09/18 01:21:48;;;;;;;6.68;2.10;;;8.90;99.90;;;;;;4933206;29;20060;-70
2022/09/18 01:24:43;;;;;;;6.40;2.38;;;9.00;99.90;;;;;;4933561;29;20455;-70
2022/09/18 01:27:32;;;;;;;9.38;2.45;;;9.00;99.90;;;;;;4932765;29;20052;-70
2022/09/18 01:30:09;;;;;;;9.52;2.58;;;9.00;99.90;;;;;;4934692;29;20052;-70
2022/09/18 01:32:58;;;;;;;8.90;2.63;;;9.00;99.90;;;;;;4931938;29;20048;-69
2022/09/18 01:35:38;;;;;;;5.75;2.60;;;9.00;99.90;;;;;;4932504;29;20062;-70
2022/09/18 01:38:26;;;;;;;5.82;2.30;;;9.10;99.90;;;;;;4919047;29;20051;-70
2022/09/18 01:41:07;;;;;;;7.25;2.30;;;9.10;99.90;;;;;;4929941;29;20517;-70
2022/09/18 01:43:37;;;;;;;5.87;2.10;;;9.10;99.90;;;;;;4931817;29;20056;-69
2022/09/18 01:46:13;;;;;;;5.78;2.47;;;9.10;99.90;;;;;;4923552;29;20847;-69
2022/09/18 01:48:57;;;;;;;6.03;2.00;;;9.10;99.90;;;;;;4930252;29;20126;-68
2022/09/18 01:51:42;;;;;;;5.88;2.30;;;9.10;99.90;;;;;;4922242;29;20407;-68
2022/09/18 01:54:17;;;;;;;6.82;2.40;;;9.10;99.90;;;;;;4921435;29;20134;-69
2022/09/18 01:56:52;;;;;;;8.98;2.25;;;9.10;99.90;;;;;;4970188;28;20067;-69
2022/09/18 01:59:38;;;;;;;9.23;2.35;;;9.00;99.90;;;;;;4990677;28;20050;-69
2022/09/18 02:02:17;;;;;;;5.35;2.20;;;9.00;99.90;;;;;;4991761;28;20446;-69
2022/09/18 02:04:49;;;;;;;9.70;2.63;;;9.00;99.90;;;;;;4979363;28;20093;-69
2022/09/18 02:07:34;;;;;;;8.00;2.35;;;9.00;99.90;;;;;;5004478;28;20034;-70
2022/09/18 02:10:04;;;;;;;8.15;2.92;;;8.90;99.90;;;;;;4981302;28;20046;-70
2022/09/18 02:12:37;;;;;;;5.72;2.20;;;9.00;99.90;;;;;;4986088;28;20504;-69
2022/09/18 02:15:09;;;;;;;6.47;2.78;;;9.10;99.90;;;;;;4989849;28;20496;-68
2022/09/18 02:17:48;;;;;;;8.45;2.80;;;9.10;99.90;;;;;;4947395;28;20382;-70
2022/09/18 02:20:20;;;;;;;9.15;3.63;;;9.00;99.90;;;;;;4996616;28;20038;-70
2022/09/18 02:22:51;;;;;;;6.95;2.45;;;9.10;99.90;;;;;;5000655;28;20053;-68
2022/09/18 02:25:29;;;;;;;13.03;2.67;;;9.10;99.90;;;;;;5001140;28;20046;-69
2022/09/18 02:27:56;;;;;;;8.10;2.58;;;9.10;99.90;;;;;;4992576;28;20047;-71
2022/09/18 02:30:27;;;;;;;5.82;2.55;;;9.10;99.90;;;;;;4986311;28;20050;-69
2022/09/18 02:32:55;;;;;;;9.82;2.97;;;9.10;99.90;;;;;;4958908;28;20509;-69
2022/09/18 02:35:30;;;;;;;9.63;3.17;;;9.10;99.90;;;;;;4980907;28;20038;-69
2022/09/18 02:38:24;;;;;;;9.82;3.40;;;9.10;99.90;;;;;;4986658;28;20451;-69
2022/09/18 02:41:19;;;;;;;6.70;2.65;;;9.10;99.90;;;;;;4981967;28;20085;-69
2022/09/18 02:43:55;;;;;;;9.13;2.70;;;9.00;99.90;;;;;;4987042;28;20039;-69
2022/09/18 02:46:37;;;;;;;12.48;3.80;;;9.00;99.90;;;;;;4989517;28;20141;-69
2022/09/18 02:49:17;;;;;;;9.80;2.97;;;9.00;99.90;;;;;;4991237;28;20035;-69
2022/09/18 02:52:27;;;;;;;9.68;2.70;;;9.10;99.90;;;;;;5004256;28;20043;-69
2022/09/18 02:55:14;;;;;;;7.10;3.10;;;9.10;99.90;;;;;;4971770;28;20062;-70
2022/09/18 02:57:51;;;;;;;13.15;3.22;;;9.10;99.90;;;;;;4989494;28;20046;-70
2022/09/18 03:00:20;;;;;;;10.68;2.78;;;9.20;99.90;;;;;;4992966;28;20046;-70
2022/09/18 03:02:58;;;;;;;8.32;2.92;;;9.10;99.90;;;;;;4990627;28;20116;-69
2022/09/18 03:05:32;;;;;;;6.32;2.80;;;9.10;99.90;;;;;;4972768;28;20050;-69
2022/09/18 03:08:01;;;;;;;4.97;2.53;;;9.10;99.90;;;;;;5005341;28;20045;-69
2022/09/18 03:10:30;;;;;;;7.18;3.00;;;9.20;99.90;;;;;;4988621;28;20505;-70
2022/09/18 03:12:57;;;;;;;9.82;3.03;;;9.20;99.90;;;;;;4989767;28;20077;-69
2022/09/18 03:15:25;;;;;;;6.72;2.83;;;9.20;99.90;;;;;;4990338;28;20039;-69
2022/09/18 03:17:52;;;;;;;9.27;3.30;;;9.20;99.90;;;;;;4980122;28;20548;-70
2022/09/18 03:20:19;;;;;;;10.20;3.10;;;9.20;99.90;;;;;;4986372;28;20042;-71
2022/09/18 03:22:48;;;;;;;8.27;3.40;;;9.20;99.90;;;;;;4987094;28;20066;-71
2022/09/18 03:25:16;;;;;;;8.07;3.05;;;9.20;99.90;;;;;;4983503;28;20073;-69
2022/09/18 03:27:43;;;;;;;10.57;3.35;;;9.20;99.90;;;;;;4988132;28;20037;-70
2022/09/18 03:30:16;;;;;;;8.95;2.88;;;9.20;99.90;;;;;;4986042;28;20039;-70
2022/09/18 03:32:43;;;;;;;7.95;3.60;;;9.20;99.90;;;;;;4972011;28;20457;-69
2022/09/18 03:35:10;;;;;;;12.27;3.13;;;9.20;99.90;;;;;;4977116;28;20042;-69
2022/09/18 03:37:38;;;;;;;9.30;3.10;;;9.20;99.90;;;;;;4985660;28;20133;-70
2022/09/18 03:40:08;;;;;;;8.05;3.30;;;9.20;99.90;;;;;;4990027;28;20051;-70
2022/09/18 03:42:36;;;;;;;5.35;2.70;;;9.20;99.90;;;;;;4988006;28;20548;-70
2022/09/18 03:45:04;;;;;;;11.52;3.25;;;9.30;99.90;;;;;;4986659;28;20580;-70
2022/09/18 03:47:31;;;;;;;8.30;3.08;;;9.30;99.90;;;;;;4980131;28;20595;-71
2022/09/18 03:50:04;;;;;;;10.02;3.00;;;9.30;99.90;;;;;;4989379;28;20497;-69
2022/09/18 03:52:33;;;;;;;6.82;2.90;;;9.30;99.90;;;;;;4989123;28;20511;-70
2022/09/18 03:55:10;;;;;;;6.70;3.22;;;9.30;99.90;;;;;;4987944;28;20132;-69
2022/09/18 03:57:57;;;;;;;9.02;3.42;;;9.40;99.90;;;;;;4961457;28;20405;-70
2022/09/18 04:00:54;;;;;;;9.10;3.05;;;9.40;99.90;;;;;;4968391;28;20070;-71
2022/09/18 04:03:32;;;;;;;9.98;3.50;;;9.40;99.90;;;;;;4952748;28;20449;-70
2022/09/18 04:06:34;;;;;;;7.47;2.83;;;9.40;99.90;;;;;;4934769;29;20132;-70
2022/09/18 04:09:20;;;;;;;8.45;3.00;;;9.30;99.90;;;;;;4905207;29;20064;-70
2022/09/18 04:11:50;;;;;;;8.35;3.60;;;9.40;99.90;;;;;;4918614;29;20083;-70
2022/09/18 04:14:18;;;;;;;9.32;2.88;;;9.30;99.90;;;;;;4917367;29;20052;-70
2022/09/18 04:16:45;;;;;;;6.75;3.08;;;9.30;99.90;;;;;;4920639;29;20059;-70
2022/09/18 04:19:12;;;;;;;6.45;2.80;;;9.30;99.90;;;;;;4904094;29;20131;-70
2022/09/18 04:21:40;;;;;;;8.32;2.90;;;9.40;99.90;;;;;;4903846;29;20491;-70
2022/09/18 04:24:07;;;;;;;7.00;3.00;;;9.30;99.90;;;;;;4921199;29;20059;-70
2022/09/18 04:26:35;;;;;;;8.27;3.10;;;9.30;99.90;;;;;;4902896;29;20139;-70
2022/09/18 04:29:04;;;;;;;6.85;3.08;;;9.30;99.90;;;;;;4914804;29;20534;-70
2022/09/18 04:31:31;;;;;;;6.07;2.70;;;9.20;99.90;;;;;;4896299;29;20531;-70
2022/09/18 04:34:03;;;;;;;7.95;3.10;;;9.20;99.90;;;;;;4902890;29;20041;-68
2022/09/18 04:36:32;;;;;;;7.50;3.53;;;9.30;99.90;;;;;;4921068;28;20151;-69
2022/09/18 04:39:00;;;;;;;9.30;3.13;;;9.30;99.90;;;;;;4960595;28;20453;-69
2022/09/18 04:41:27;;;;;;;9.27;3.20;;;9.30;99.90;;;;;;4980513;28;20517;-68
2022/09/18 04:43:55;;;;;;;11.65;2.63;;;9.20;99.90;;;;;;4997300;28;20542;-68
2022/09/18 04:46:22;;;;;;;5.88;2.75;;;9.30;99.90;;;;;;4992169;28;20480;-69
2022/09/18 04:48:53;;;;;;;7.18;2.95;;;9.30;99.90;;;;;;4975300;28;20564;-69
2022/09/18 04:51:23;;;;;;;9.25;2.85;;;9.40;99.90;;;;;;4982474;28;20076;-69
2022/09/18 04:53:50;;;;;;;6.13;2.80;;;9.40;99.90;;;;;;4992306;28;20500;-69
2022/09/18 04:56:18;;;;;;;5.97;2.30;;;9.40;99.90;;;;;;4992712;28;20074;-69
2022/09/18 04:58:49;;;;;;;5.50;2.63;;;9.40;99.90;;;;;;4992546;28;20062;-69
2022/09/18 05:01:17;;;;;;;8.40;2.88;;;9.50;99.90;;;;;;4992238;28;20050;-69
2022/09/18 05:03:45;;;;;;;8.45;2.70;;;9.40;99.90;;;;;;4981501;28;20046;-69
2022/09/18 05:06:34;;;;;;;6.18;2.30;;;9.40;99.90;;;;;;4991808;28;20042;-69
2022/09/18 05:09:02;;;;;;;6.22;2.65;;;9.40;99.90;;;;;;4991425;28;20042;-70
2022/09/18 05:11:29;;;;;;;7.20;2.50;;;9.50;99.90;;;;;;4992170;28;20042;-69
2022/09/18 05:13:57;;;;;;;5.63;2.53;;;9.50;99.90;;;;;;4991501;28;20053;-70
2022/09/18 05:16:28;;;;;;;6.35;2.50;;;9.50;99.90;;;;;;5009086;28;20567;-70
2022/09/18 05:19:15;;;;;;;10.15;3.17;;;9.40;99.90;;;;;;4986103;28;20070;-69
2022/09/18 05:21:42;;;;;;;6.05;2.53;;;9.50;99.90;;;;;;5008571;28;20050;-69
2022/09/18 05:24:12;;;;;;;5.35;2.58;;;9.60;99.90;;;;;;4993761;28;20054;-71
2022/09/18 05:26:41;;;;;;;6.22;2.40;;;9.60;99.90;;;;;;4990558;28;20053;-71
2022/09/18 05:29:08;;;;;;;7.88;2.75;;;9.60;99.90;;;;;;4990295;28;20117;-71
2022/09/18 05:31:36;;;;;;;9.38;3.20;;;9.70;99.90;;;;;;4989595;28;20034;-69
2022/09/18 05:34:03;;;;;;;9.05;3.42;;;9.80;99.90;;;;;;4990644;28;20417;-71
2022/09/18 05:36:31;;;;;;;6.32;2.58;;;9.90;99.90;;;;;;5005339;28;20077;-70
2022/09/18 05:38:59;;;;;;;9.52;2.70;;;9.90;99.90;;;;;;4994266;28;20093;-71
2022/09/18 05:41:27;;;;;;;8.02;2.55;;;9.80;99.90;;;;;;4986264;28;20046;-70
2022/09/18 05:43:55;;;;;;;8.98;2.60;;;9.80;99.90;;;;;;5005691;28;20426;-70
2022/09/18 05:46:22;;;;;;;5.47;2.55;;;9.80;99.90;;;;;;4990369;28;20038;-69
2022/09/18 05:48:55;;;;;;;6.85;2.50;;;9.90;99.90;;;;;;4986772;28;20149;-69
2022/09/18 05:51:23;;;;;;;8.35;2.50;;;9.90;99.90;;;;;;5002569;28;20066;-70
2022/09/18 05:53:50;;;;;;;9.05;2.22;;;9.80;99.90;;;;;;4988811;28;20503;-70
2022/09/18 05:56:20;;;;;;;5.32;2.40;;;9.80;99.90;;;;;;4985909;28;20064;-71
2022/09/18 05:58:48;;;;;;;4.93;2.15;;;9.70;99.90;;;;;;4965722;28;20857;-71
2022/09/18 06:01:16;;;;;;;5.25;2.40;;;9.60;99.90;;;;;;4970761;28;20052;-71
2022/09/18 06:04:03;;;;;;;9.38;2.78;;;9.70;99.90;;;;;;4989109;28;20370;-71
2022/09/18 06:06:42;;;;;;;13.02;3.35;;;9.70;99.90;;;;;;4972722;28;20492;-71
2022/09/18 06:09:09;;;;;;;7.93;2.70;;;9.60;99.90;;;;;;5007159;28;20663;-70
2022/09/18 06:11:37;;;;;;;6.22;2.38;;;9.60;99.90;;;;;;4989057;28;20030;-71
2022/09/18 06:14:04;;;;;;;6.15;2.53;;;9.70;99.90;;;;;;4989599;28;21525;-70
2022/09/18 06:16:33;;;;;;;6.30;2.58;;;9.70;99.90;;;;;;4989390;28;20093;-70
2022/09/18 06:19:07;;;;;;;13.10;2.70;;;9.60;99.90;;;;;;5006809;28;20093;-70
2022/09/18 06:21:34;;;;;;;7.50;2.33;;;9.60;99.90;;;;;;5005856;28;20038;-69
2022/09/18 06:24:04;;;;;;;6.70;2.67;;;9.60;99.90;;;;;;5006754;28;20041;-68
2022/09/18 06:26:41;;;;;;;6.97;2.50;;;9.50;99.90;;;;;;5002077;28;20505;-69
2022/09/18 06:29:08;;;;;;;6.07;2.42;;;9.50;99.90;;;;;;5003278;28;20469;-68
2022/09/18 06:31:48;;;;;;;5.45;2.58;;;9.50;99.90;;;;;;4984578;28;20038;-68
2022/09/18 06:34:22;;;;;;;7.72;2.63;;;9.50;99.90;;;;;;4990290;28;20507;-68
2022/09/18 06:36:53;;;;;;;7.63;2.55;;;9.60;99.90;;;;;;5004528;28;20056;-68
2022/09/18 06:39:25;;;;;;;5.45;2.22;;;9.60;99.90;;;;;;5006272;28;20125;-70
2022/09/18 06:41:58;;;;;;;7.75;3.00;;;9.60;99.90;;;;;;5004526;28;20069;-70
2022/09/18 06:44:44;;;;;;;7.30;2.70;;;9.70;99.90;;;;;;4989527;28;20145;-69
2022/09/18 06:47:13;;;;;;;6.18;2.28;;;9.70;99.90;;;;;;4983812;28;20530;-70
2022/09/18 06:49:43;;;;;;;8.98;3.08;;;9.70;99.90;;;;;;4985498;28;20404;-69
2022/09/18 06:52:11;;;;;;;6.40;2.42;;;9.70;99.90;;;;;;4988761;28;20088;-69
2022/09/18 06:54:39;;;;;;;9.25;2.90;;;9.80;99.90;;;;;;5006883;28;20543;-69
2022/09/18 06:57:07;;;;;;;9.30;2.35;;;9.80;99.90;;;;;;4990232;28;20405;-67
2022/09/18 06:59:35;;;;;;;4.75;2.20;;;9.80;99.90;;;;;;4990909;28;20038;-67
2022/09/18 07:02:04;;;;;;;7.13;2.30;;;9.80;99.90;;;;;;4985952;28;20042;-70
2022/09/18 07:04:51;;;;;;;9.10;2.30;;;9.80;99.90;;;;;;4989351;28;20589;-71
2022/09/18 07:07:19;;;;;;;6.05;2.85;;;9.90;99.90;;;;;;4989502;28;20522;-69
2022/09/18 07:09:49;;;;;;;3.88;2.15;;;9.80;99.90;;;;;;4994726;28;20539;-70
2022/09/18 07:12:27;;;;;;;6.07;2.55;;;9.80;99.90;;;;;;5003689;28;20416;-70
2022/09/18 07:14:55;;;;;;;5.10;2.47;;;9.80;99.90;;;;;;4987474;28;20050;-69
2022/09/18 07:17:24;;;;;;;7.07;2.40;;;9.80;99.90;;;;;;5005818;28;20038;-70
2022/09/18 07:19:55;;;;;;;4.65;2.15;;;9.80;99.90;;;;;;4989555;28;20141;-70
2022/09/18 07:22:31;;;;;;;4.80;2.15;;;9.80;99.90;;;;;;4975650;28;20412;-70
2022/09/18 07:24:58;;;;;;;6.43;2.33;;;9.90;99.90;;;;;;4988726;28;20514;-70
2022/09/18 07:27:27;;;;;;;6.60;2.05;;;9.90;99.90;;;;;;4961567;28;20081;-70
2022/09/18 07:29:55;;;;;;;10.05;2.70;;;9.90;99.90;;;;;;4982935;28;20054;-70
2022/09/18 07:32:24;;;;;;;4.47;2.47;;;9.90;99.90;;;;;;5006299;28;20117;-69
2022/09/18 07:34:51;;;;;;;8.15;3.20;;;10.00;99.90;;;;;;4990724;28;20555;-70
2022/09/18 07:37:24;;;;;;;8.23;2.35;;;10.00;99.90;;;;;;4989954;28;20500;-71
2022/09/18 07:40:11;;;;;;;6.90;1.98;;;10.00;99.90;;;;;;5005449;28;20038;-70
2022/09/18 07:42:50;;;;;;;7.43;2.55;;;10.00;99.90;;;;;;4989295;28;20050;-71
2022/09/18 07:45:18;;;;;;;7.22;2.58;;;10.00;99.90;;;;;;4989712;28;20092;-72
2022/09/18 07:47:45;;;;;;;5.50;2.30;;;10.10;99.90;;;;;;4989507;28;20069;-71
2022/09/18 07:50:14;;;;;;;5.00;2.28;;;10.10;99.90;;;;;;4989701;28;20042;-70
2022/09/18 07:52:54;;;;;;;6.32;1.95;;;10.10;99.90;;;;;;4989762;28;20508;-70
2022/09/18 07:55:26;;;;;;;4.80;2.15;;;10.10;99.90;;;;;;4989619;28;20493;-70
2022/09/18 07:57:56;;;;;;;6.28;2.30;;;10.20;99.90;;;;;;5005719;28;20140;-70
2022/09/18 08:01:03;;;;;;;6.03;2.17;;;10.10;99.90;;;;;;4950043;29;20047;-70
2022/09/18 08:03:34;;;;;;;5.32;2.58;;;10.10;99.90;;;;;;4934121;29;20102;-71
2022/09/18 08:06:10;;;;;;;4.82;2.17;;;10.20;99.90;;;;;;4941384;28;20059;-72
2022/09/18 08:08:46;;;;;;;6.88;1.98;;;10.20;99.90;;;;;;4914323;28;20593;-71
2022/09/18 08:11:37;;;;;;;4.90;1.75;;;10.10;99.90;;;;;;4934349;29;20074;-70
2022/09/18 08:14:22;;;;;;;5.53;2.30;;;10.20;99.90;;;;;;4935329;28;20047;-70
2022/09/18 08:17:25;;;;;;;7.15;2.40;;;10.20;99.90;;;;;;4947813;28;20047;-70
2022/09/18 08:20:22;;;;;;;4.30;1.80;;;10.20;99.90;;;;;;4911379;29;20056;-70
2022/09/18 08:22:52;;;;;;;3.78;2.28;;;10.10;99.90;;;;;;4896154;29;20048;-70
2022/09/18 08:25:26;;;;;;;5.07;2.70;;;10.10;99.90;;;;;;4911238;29;20147;-71
2022/09/18 08:27:58;;;;;;;5.75;2.10;;;10.20;99.90;;;;;;4911339;29;20567;-70
2022/09/18 08:30:34;;;;;;;6.78;2.42;;;10.20;99.90;;;;;;4906413;29;20052;-71
2022/09/18 08:33:07;;;;;;;4.80;1.73;;;10.20;99.90;;;;;;4942577;28;20162;-71
2022/09/18 08:35:36;;;;;;;3.83;1.85;;;10.10;99.90;;;;;;4931406;29;20043;-71
2022/09/18 08:38:16;;;;;;;4.60;1.80;;;10.30;99.90;;;;;;4913201;29;20513;-70
2022/09/18 08:41:13;;;;;;;6.07;2.10;;;10.40;99.90;;;;;;4940615;29;20541;-70
2022/09/18 08:44:02;;;;;;;6.50;2.22;;;10.50;99.90;;;;;;4928098;29;20058;-70
2022/09/18 08:46:40;;;;;;;2.55;1.60;;;10.50;99.90;;;;;;4932809;29;20462;-70
2022/09/18 08:49:27;;;;;;;5.05;1.92;;;10.50;99.90;;;;;;4933600;29;20153;-70
2022/09/18 08:52:13;;;;;;;5.85;1.70;;;10.60;99.90;;;;;;4935222;29;20051;-70
2022/09/18 08:54:44;;;;;;;4.93;1.75;;;10.80;99.90;;;;;;4934914;29;20094;-70
2022/09/18 08:57:45;;;;;;;4.78;1.63;;;10.80;99.90;;;;;;4909539;29;20059;-71
2022/09/18 09:00:30;;;;;;;5.28;2.03;;;10.80;99.90;;;;;;4911648;29;20156;-70
2022/09/18 09:03:32;;;;;;;7.95;2.30;;;10.70;99.90;;;;;;4896339;29;20127;-71
2022/09/18 09:06:21;;;;;;;4.22;1.70;;;10.70;99.90;;;;;;4871265;29;20124;-71
2022/09/18 09:09:04;;;;;;;5.32;1.70;;;11.00;99.90;;;;;;4913108;29;20096;-71
2022/09/18 09:12:01;;;;;;;4.75;2.00;;;11.00;99.90;;;;;;4896028;29;20498;-68
2022/09/18 09:15:02;;;;;;;5.53;1.67;;;11.20;99.90;;;;;;4898036;29;20107;-70
2022/09/18 09:17:51;;;;;;;4.32;1.45;;;11.40;99.90;;;;;;4913398;29;20076;-70
2022/09/18 09:20:53;;;;;;;4.03;1.60;;;11.40;99.90;;;;;;4881689;29;20056;-70
2022/09/18 09:23:55;;;;;;;3.67;1.73;;;11.70;99.90;;;;;;4892824;29;20084;-71
2022/09/18 09:26:54;;;;;;;4.20;1.58;;;12.00;99.90;;;;;;4875179;29;20452;-71
2022/09/18 09:29:43;;;;;;;4.07;1.65;;;12.10;99.90;;;;;;4862740;29;20037;-70
2022/09/18 09:32:56;;;;;;;3.90;1.70;;;12.10;99.90;;;;;;4869735;29;20041;-69
2022/09/18 09:35:49;;;;;;;8.40;2.40;;;12.20;99.90;;;;;;4901639;29;20085;-70
2022/09/18 09:38:38;;;;;;;4.85;2.00;;;12.20;99.90;;;;;;4917937;29;20051;-70
2022/09/18 09:41:14;;;;;;;3.33;1.50;;;12.20;99.90;;;;;;4907611;29;20514;-71
2022/09/18 09:43:46;;;;;;;3.70;1.48;;;12.10;99.90;;;;;;4917288;29;20103;-69
2022/09/18 09:46:42;;;;;;;4.22;1.85;;;12.00;99.90;;;;;;4909604;29;20059;-70
2022/09/18 09:49:24;;;;;;;5.57;2.05;;;11.90;99.90;;;;;;4908173;29;20534;-70
2022/09/18 09:52:12;;;;;;;5.30;1.70;;;12.00;99.90;;;;;;4898543;29;20047;-70
2022/09/18 09:54:41;;;;;;;4.15;2.05;;;12.10;99.90;;;;;;4931593;29;20258;-69
2022/09/18 09:57:24;;;;;;;2.45;1.48;;;12.20;99.90;;;;;;4932925;29;20108;-69
2022/09/18 10:00:14;;;;;;;4.07;1.52;;;12.20;99.90;;;;;;4907218;29;20138;-71
2022/09/18 10:03:24;;;;;;;4.43;1.70;;;12.20;99.90;;;;;;4942835;28;20129;-70
2022/09/18 10:06:24;;;;;;;4.55;1.58;;;12.00;99.90;;;;;;4981234;28;20050;-71
2022/09/18 10:08:56;;;;;;;4.90;1.55;;;12.10;99.90;;;;;;4972457;28;20062;-70
2022/09/18 10:11:25;;;;;;;4.57;1.80;;;12.20;99.90;;;;;;4977061;28;20043;-70
2022/09/18 10:14:17;;;;;;;4.20;1.63;;;12.10;99.90;;;;;;5003933;28;20125;-67
2022/09/18 10:16:48;;;;;;;3.35;1.70;;;12.20;99.90;;;;;;4988652;28;20504;-70
2022/09/18 10:19:19;;;;;;;2.90;1.58;;;12.00;99.90;;;;;;5006972;28;20034;-70
2022/09/18 10:21:51;;;;;;;4.22;1.60;;;11.90;99.90;;;;;;4967556;28;20097;-71
2022/09/18 10:24:27;;;;;;;4.15;1.70;;;11.80;99.90;;;;;;4972453;28;20523;-72
2022/09/18 10:27:14;;;;;;;3.03;1.92;;;11.90;99.90;;;;;;4980313;28;20505;-71
2022/09/18 10:29:42;;;;;;;3.58;1.60;;;12.00;99.90;;;;;;4977490;28;20125;-70
2022/09/18 10:32:35;;;;;;;4.25;1.95;;;12.00;99.90;;;;;;4996987;28;20050;-69
2022/09/18 10:35:29;;;;;;;3.83;2.03;;;12.20;99.90;;;;;;4969918;28;20039;-69
2022/09/18 10:37:58;;;;;;;5.03;2.05;;;12.50;99.90;;;;;;4979114;28;20043;-69
2022/09/18 10:40:38;;;;;;;7.45;2.40;;;12.40;99.90;;;;;;4984225;28;20054;-69
2022/09/18 10:43:16;;;;;;;6.25;2.13;;;12.60;99.90;;;;;;5002083;28;20133;-71
2022/09/18 10:45:53;;;;;;;6.22;2.38;;;12.30;99.90;;;;;;4990671;28;20459;-71
2022/09/18 10:48:28;;;;;;;6.45;2.72;;;12.10;99.90;;;;;;4971403;28;20100;-71
2022/09/18 10:51:03;;;;;;;5.32;2.38;;;12.10;99.90;;;;;;4972186;28;20074;-72
2022/09/18 10:53:41;;;;;;;5.78;2.10;;;12.20;99.90;;;;;;5004721;28;20042;-71
2022/09/18 10:56:18;;;;;;;5.38;2.63;;;12.20;99.90;;;;;;4987683;28;20616;-71
2022/09/18 10:58:48;;;;;;;4.85;2.70;;;12.20;99.90;;;;;;4988050;28;20547;-72
2022/09/18 11:01:16;;;;;;;5.80;2.33;;;12.30;99.90;;;;;;5003657;28;20085;-72
2022/09/18 11:04:04;;;;;;;5.30;2.25;;;12.00;99.90;;;;;;4968855;28;20061;-70
2022/09/18 11:06:43;;;;;;;6.55;2.40;;;12.10;99.90;;;;;;4999493;28;20049;-69
2022/09/18 11:09:30;;;;;;;4.50;2.55;;;12.00;99.90;;;;;;4965785;28;20486;-69
2022/09/18 11:11:57;;;;;;;5.65;2.88;;;11.80;99.90;;;;;;4973499;28;20074;-69
2022/09/18 11:14:30;;;;;;;;;;;11.70;99.90;;;;;;4989551;28;20106;-70
2022/09/18 11:17:03;;;;;;;5.47;2.65;;;11.70;99.90;;;;;;5003806;28;19972;-70
2022/09/18 11:19:39;;;;;;;6.13;2.60;;;11.70;99.90;;;;;;4985497;28;20041;-71
2022/09/18 11:22:34;;;;;;;4.32;2.30;;;11.80;99.90;;;;;;4989910;28;20054;-70
2022/09/18 11:25:23;;;;;;;3.55;2.30;;;11.80;99.90;;;;;;5000542;28;20046;-70
2022/09/18 11:27:56;;;;;;;5.25;2.08;;;11.90;99.90;;;;;;4996129;28;20042;-71
2022/09/18 11:30:30;;;;;;;6.22;2.17;;;11.80;99.90;;;;;;4999854;28;20095;-70
2022/09/18 11:33:21;;;;;;;5.78;2.63;;;11.70;99.90;;;;;;4986988;28;20050;-71
2022/09/18 11:35:56;;;;;;;4.93;2.20;;;11.70;99.90;;;;;;4985288;28;20041;-71
2022/09/18 11:38:25;;;;;;;4.28;2.22;;;11.70;99.90;;;;;;4965257;28;20038;-72
2022/09/18 11:40:55;;;;;;;4.30;2.30;;;11.70;99.90;;;;;;4984628;28;20043;-70
2022/09/18 11:43:33;;;;;;;4.47;2.35;;;11.80;99.90;;;;;;4973234;28;20050;-71
2022/09/18 11:46:24;;;;;;;5.05;2.15;;;11.90;99.90;;;;;;5004246;28;20598;-70
2022/09/18 11:49:08;;;;;;;5.43;2.00;;;12.00;99.90;;;;;;4971656;28;20501;-71
2022/09/18 11:52:00;;;;;;;5.03;2.15;;;12.00;99.90;;;;;;4989017;28;20457;-70
2022/09/18 11:54:50;;;;;;;4.45;1.80;;;12.10;99.90;;;;;;4998842;28;20575;-70
2022/09/18 11:57:56;;;;;;;5.00;2.33;;;12.10;99.90;;;;;;4956521;28;20050;-71
2022/09/18 12:00:30;;;;;;;3.83;1.90;;;12.10;99.90;;;;;;4910381;29;20074;-71
2022/09/18 12:03:13;;;;;;;3.25;1.73;;;12.20;99.90;;;;;;4894025;29;20044;-70
2022/09/18 12:05:51;;;;;;;2.70;1.60;;;12.40;99.90;;;;;;4893663;29;20100;-71
2022/09/18 12:08:39;;;;;;;4.38;1.80;;;12.60;99.90;;;;;;4894331;29;20036;-71
2022/09/18 12:11:32;;;;;;;12.95;2.20;;;12.70;99.90;;;;;;4894680;29;20608;-72
2022/09/18 12:14:16;;;;;;;5.40;1.90;;;12.60;99.90;;;;;;4894185;29;20044;-71
2022/09/18 12:17:02;;;;;;;4.00;1.83;;;12.60;99.90;;;;;;4894841;29;20055;-71
2022/09/18 12:19:37;;;;;;;5.47;2.00;;;12.60;99.90;;;;;;4915329;29;20094;-72
2022/09/18 12:22:13;;;;;;;3.90;1.92;;;12.50;99.90;;;;;;4893710;29;20482;-71
2022/09/18 12:24:40;;;;;;;5.78;2.72;;;12.50;99.90;;;;;;4881497;29;20059;-71
2022/09/18 12:27:23;;;;;;;3.65;1.85;;;12.60;99.90;;;;;;4901958;29;20555;-71
2022/09/18 12:30:17;;;;;;;3.97;2.00;;;12.70;99.90;;;;;;4914769;29;20060;-71
2022/09/18 12:33:03;;;;;;;6.85;2.63;;;12.70;99.90;;;;;;5006887;28;20527;-72
2022/09/18 12:35:49;;;;;;;5.82;2.05;;;12.80;99.90;;;;;;4993729;28;20115;-71
2022/09/18 12:38:46;;;;;;;7.47;2.00;;;12.80;99.90;;;;;;4980256;28;20459;-71
2022/09/18 12:41:39;;;;;;;4.07;2.00;;;12.90;99.90;;;;;;4986585;28;20058;-70
2022/09/18 12:44:37;;;;;;;4.45;2.08;;;12.90;99.90;;;;;;4990095;28;20043;-68
2022/09/18 12:47:16;;;;;;;5.65;2.10;;;12.90;99.90;;;;;;5006250;28;20061;-70
2022/09/18 12:50:11;;;;;;;6.05;2.13;;;13.00;99.90;;;;;;4992322;28;20058;-72
2022/09/18 12:53:29;;;;;;;3.65;2.05;;;12.90;99.90;;;;;;5001290;28;20053;-72
2022/09/18 12:56:15;;;;;;;6.50;2.08;;;12.90;99.90;;;;;;4915689;29;20179;-72
2022/09/18 12:59:20;;;;;;;7.05;2.08;;;12.80;99.90;;;;;;4930569;29;20043;-71
2022/09/18 13:02:01;;;;;;;6.40;2.42;;;12.90;99.90;;;;;;4925840;29;20073;-71
2022/09/18 13:04:37;;;;;;;6.20;2.20;;;13.10;99.90;;;;;;4924328;29;20047;-71
2022/09/18 13:07:12;;;;;;;5.35;2.10;;;13.00;99.90;;;;;;4933329;29;20057;-71
2022/09/18 13:10:01;;;;;;;6.15;2.70;;;13.00;99.90;;;;;;4932295;29;20047;-73
2022/09/18 13:12:32;;;;;;;9.70;2.88;;;13.10;99.90;;;;;;4916575;29;20046;-72
2022/09/18 13:15:16;;;;;;;8.05;2.40;;;13.00;99.90;;;;;;4923563;29;20090;-72
2022/09/18 13:18:00;;;;;;;4.55;2.22;;;13.00;99.90;;;;;;4900743;29;20580;-71
2022/09/18 13:20:37;;;;;;;7.85;2.38;;;13.00;99.90;;;;;;4917490;29;20523;-71
2022/09/18 13:23:07;;;;;;;5.30;2.30;;;13.00;99.90;;;;;;4933088;29;20063;-68
2022/09/18 13:25:38;;;;;;;5.80;2.13;;;13.10;99.90;;;;;;4916478;29;20119;-69
2022/09/18 13:28:14;;;;;;;4.90;2.30;;;13.10;99.90;;;;;;4931297;29;20509;-69
2022/09/18 13:30:41;;;;;;;4.28;2.60;;;13.00;99.90;;;;;;4996753;28;20063;-69
2022/09/18 13:33:23;;;;;;;7.95;2.50;;;13.00;99.90;;;;;;4990237;28;20035;-68
2022/09/18 13:35:56;;;;;;;6.72;3.10;;;13.00;99.90;;;;;;4991868;28;20042;-68
2022/09/18 13:38:30;;;;;;;6.90;2.80;;;12.90;99.90;;;;;;4978327;28;20050;-71
2022/09/18 13:41:01;;;;;;;6.95;2.70;;;12.70;99.90;;;;;;4972946;28;20049;-70
2022/09/18 13:43:38;;;;;;;7.03;2.65;;;12.80;99.90;;;;;;4985182;28;20042;-70
2022/09/18 13:46:08;;;;;;;4.63;2.15;;;12.70;99.90;;;;;;5004379;28;20046;-71